CheckWX is a tool to help pilots better visualize weather data.  It is not intended as a substitute for an official pre-flight weather briefing.

22:17:19 UTC

FMEE TAF
Roland Garros Airport
St Denis, Reunion
TAF FMEE 201100Z 2012/2118 10016KT 9999 FEW023

Mar-20@
12:00 UTC

Mar-20 @ 12:00 UTC

Mar-21@
18:00 UTC

Mar-21 @ 18:00 UTC

TAF FMEE 201100Z 2012/2118 10016KT 9999 FEW023
Wind
  • 100° at 16 KTS
Cloud Levels
  • Few at 2,300' AGL